Pagrindinis puslapis
METAR-TAF:

METAR-TAF

Oro uostai :

Kajo Largo del Suras, Kuba

platuma: 21-37N, ilguma: 081-33W, Aukštis: 2 m

Dabartinis oras

Ataskaita buvo paskelbta 43 minutes, ne 14:50 UTC
Temperatūra
Slėgis 1017 hPa
Matomumas: 8000 m
Mažai debesys ne aukštis 2000 ft
Apsiniaukę ne aukštis 6000 ft
lietus

METAR: MUCL 161450Z /////KT 8000 -RA FEW020 OVC060 XX/XX Q1017

Laikas: 11:33 (15:33 UTC)

Prognozė

Ataskaita buvo paskelbta 4 valandos ir 33 minutes, ne 11:00 UTC
Prognozė galioja nuo 16 metu 12 UTC su 16 metu 24 UTC
Vėjas 3 kt nuo kintamojo kryptimis
Matomumas: 9000 m
Išsisklaidę debesys ne aukštis 2000 ft
Laikinai
nuo 16 metu 18 UTC su 16 metu 24 UTC
Vėjas 10 kt nuo kintamojo kryptimis
Matomumas: 5000 m
Išsisklaidę debesys ne aukštis 1800 ft, Liūtiniai kamuoliniai debesys.
Su prošvaistėmis ne aukštis 2000 ft
perkūnija, lietus

TAF: MUCL 161100Z 1612/1624 VRB03KT 9000 SCT020 TEMPO 1618/1624 VRB10KT 5000 TSRA SCT018CB BKN020

Orai ataskaitas ir orų prognozės (METAR, TAF).

turimą stotys yra geltonos ir raudonos taškus žemėlapyje.

Perkelti pele per norėdami pamatyti stoties vardą.

Tada spustelėkite, norėdami matyti oro stebėjimo ir prognozės.

Norėdami pakeisti žemėlapį: spustelėkite ant žalios mygtukų su juodo kryžiaus žemyn,; žalią mygtuką su brūkšneliu, jei norite nutolinti; arba žalių rodyklių gretimoms žemėlapius.


METAR-TAF: